CHH8545 ZSHC-ZJHK
Flight info
| Callsign | CHH8545 |
|---|---|
| Flight time | N/A |
| Altitude | 32100 |
| Route | ELN91D ELNEX A599 TUPGA/K0867S1040 A599 PLT W19 NOMAR W18 NLG W23 ZUH R200 BIGRO G221 GIVIV W605 DOMGO DOMGO9XA |
| Aircraft | B738/M-SDE2E3FGHIRWXY/LB1 |
Departure
| Time | 2026-04-30 14:14 |
|---|---|
| Airport | Hangzhou Xiaoshan International Airport (ZSHC) |
Arrival
| Time | N/A |
|---|---|
| Airport | Haikou Meilan International Airport (ZJHK) |
| Time | Latitude | Longitude | Altitude | Speed | Heading |
|---|---|---|---|---|---|
| 2026-04-30 13:41 | 30.23446 | 120.43406 | 31 ft | 0 kts | 64° |
| 2026-04-30 14:03 | 30.23440 | 120.43390 | 30 ft | 4 kts | 59° |
| 2026-04-30 14:03 | 30.23428 | 120.43371 | 30 ft | 4 kts | 43° |
| 2026-04-30 14:04 | 30.23409 | 120.43352 | 31 ft | 4 kts | 64° |
| 2026-04-30 14:04 | 30.23408 | 120.43342 | 31 ft | 1 kts | 111° |
| 2026-04-30 14:04 | 30.23409 | 120.43339 | 31 ft | 0 kts | 111° |
| 2026-04-30 14:08 | 30.23378 | 120.43386 | 31 ft | 12 kts | 141° |
| 2026-04-30 14:09 | 30.23293 | 120.43439 | 31 ft | 16 kts | 153° |
| 2026-04-30 14:09 | 30.23180 | 120.43485 | 31 ft | 18 kts | 194° |
| 2026-04-30 14:09 | 30.23053 | 120.43233 | 31 ft | 22 kts | 244° |
| 2026-04-30 14:10 | 30.22979 | 120.43064 | 31 ft | 25 kts | 243° |
| 2026-04-30 14:10 | 30.22898 | 120.42883 | 31 ft | 26 kts | 243° |
| 2026-04-30 14:10 | 30.22824 | 120.42716 | 31 ft | 23 kts | 243° |
| 2026-04-30 14:10 | 30.22745 | 120.42540 | 31 ft | 26 kts | 243° |
| 2026-04-30 14:11 | 30.22657 | 120.42343 | 31 ft | 29 kts | 243° |
| 2026-04-30 14:11 | 30.22577 | 120.42160 | 31 ft | 26 kts | 243° |
| 2026-04-30 14:11 | 30.22491 | 120.41967 | 31 ft | 28 kts | 243° |
| 2026-04-30 14:11 | 30.22415 | 120.41794 | 31 ft | 22 kts | 243° |
| 2026-04-30 14:12 | 30.22359 | 120.41720 | 30 ft | 11 kts | 192° |
| 2026-04-30 14:12 | 30.22312 | 120.41734 | 30 ft | 0 kts | 156° |
| 2026-04-30 14:13 | 30.22304 | 120.41738 | 29 ft | 4 kts | 156° |
| 2026-04-30 14:13 | 30.22244 | 120.41788 | 29 ft | 17 kts | 125° |
| 2026-04-30 14:13 | 30.22279 | 120.41925 | 29 ft | 21 kts | 62° |
| 2026-04-30 14:14 | 30.22392 | 120.42179 | 32 ft | 69 kts | 63° |
| 2026-04-30 14:14 | 30.22737 | 120.42959 | 30 ft | 146 kts | 63° |
| 2026-04-30 14:14 | 30.23232 | 120.44156 | 519 ft | 173 kts | 66° |
| 2026-04-30 14:14 | 30.23746 | 120.45403 | 1572 ft | 173 kts | 63° |
| 2026-04-30 14:15 | 30.24061 | 120.46817 | 2182 ft | 200 kts | 90° |
| 2026-04-30 14:15 | 30.23900 | 120.48497 | 2532 ft | 223 kts | 100° |
| 2026-04-30 14:15 | 30.23614 | 120.50346 | 2808 ft | 244 kts | 99° |
| 2026-04-30 14:15 | 30.23365 | 120.52297 | 3029 ft | 248 kts | 97° |
| 2026-04-30 14:16 | 30.23158 | 120.54301 | 3593 ft | 254 kts | 96° |
| 2026-04-30 14:16 | 30.22816 | 120.56369 | 4133 ft | 271 kts | 113° |
| 2026-04-30 14:16 | 30.21644 | 120.58099 | 4849 ft | 281 kts | 145° |
| 2026-04-30 14:16 | 30.19925 | 120.59211 | 5631 ft | 287 kts | 154° |
| 2026-04-30 14:17 | 30.18079 | 120.60157 | 6379 ft | 294 kts | 167° |
| 2026-04-30 14:17 | 30.16046 | 120.60235 | 7112 ft | 294 kts | 196° |
| 2026-04-30 14:17 | 30.14225 | 120.59274 | 7957 ft | 286 kts | 224° |
| 2026-04-30 14:17 | 30.12943 | 120.57576 | 8808 ft | 278 kts | 245° |
| 2026-04-30 14:18 | 30.12030 | 120.55615 | 9493 ft | 278 kts | 249° |
| 2026-04-30 14:18 | 30.11166 | 120.53613 | 9826 ft | 279 kts | 249° |
| 2026-04-30 14:18 | 30.09427 | 120.49574 | 9846 ft | 281 kts | 249° |
| 2026-04-30 14:19 | 30.07644 | 120.45515 | 11068 ft | 282 kts | 249° |
| 2026-04-30 14:19 | 30.06750 | 120.43501 | 11926 ft | 282 kts | 249° |
| 2026-04-30 14:19 | 30.05855 | 120.41487 | 12717 ft | 283 kts | 249° |
| 2026-04-30 14:20 | 30.04953 | 120.39459 | 13484 ft | 286 kts | 249° |
| 2026-04-30 14:20 | 30.04028 | 120.37378 | 13877 ft | 300 kts | 249° |
| 2026-04-30 14:20 | 30.01960 | 120.32726 | 13958 ft | 349 kts | 248° |
| 2026-04-30 14:21 | 30.01195 | 120.31015 | 13933 ft | 358 kts | 248° |
| 2026-04-30 14:21 | 30.00042 | 120.28446 | 14006 ft | 364 kts | 247° |
| 2026-04-30 14:21 | 29.97638 | 120.23288 | 15375 ft | 364 kts | 246° |
| 2026-04-30 14:22 | 29.96418 | 120.20723 | 16010 ft | 366 kts | 247° |
| 2026-04-30 14:22 | 29.93959 | 120.15534 | 17221 ft | 371 kts | 247° |
| 2026-04-30 14:22 | 29.92719 | 120.12918 | 17802 ft | 373 kts | 247° |
| 2026-04-30 14:23 | 29.90213 | 120.07634 | 18860 ft | 378 kts | 248° |
| 2026-04-30 14:23 | 29.87682 | 120.02308 | 19968 ft | 380 kts | 248° |
| 2026-04-30 14:24 | 29.85127 | 119.96949 | 21000 ft | 384 kts | 248° |
| 2026-04-30 14:24 | 29.83596 | 119.94386 | 21469 ft | 393 kts | 240° |
| 2026-04-30 14:25 | 29.77753 | 119.86287 | 22897 ft | 402 kts | 239° |
| 2026-04-30 14:25 | 29.66111 | 119.69820 | 25338 ft | 410 kts | 240° |
| 2026-04-30 14:26 | 29.63230 | 119.63888 | 26072 ft | 387 kts | 262° |
| 2026-04-30 14:26 | 29.62810 | 119.60868 | 26327 ft | 381 kts | 273° |
| 2026-04-30 14:26 | 29.62966 | 119.52287 | 27117 ft | 389 kts | 267° |
| 2026-04-30 14:27 | 29.62273 | 119.49239 | 27414 ft | 400 kts | 257° |
| 2026-04-30 14:27 | 29.61041 | 119.46327 | 27653 ft | 414 kts | 246° |
| 2026-04-30 14:27 | 29.59216 | 119.43686 | 27870 ft | 428 kts | 237° |
| 2026-04-30 14:28 | 29.49830 | 119.31949 | 29318 ft | 426 kts | 238° |
| 2026-04-30 14:28 | 29.42059 | 119.22097 | 30711 ft | 420 kts | 238° |
| 2026-04-30 14:28 | 29.39805 | 119.19238 | 31045 ft | 420 kts | 238° |
| 2026-04-30 14:28 | 29.37847 | 119.16762 | 31393 ft | 418 kts | 238° |
| 2026-04-30 14:29 | 29.33941 | 119.11831 | 31951 ft | 417 kts | 238° |
| 2026-04-30 14:29 | 29.28756 | 119.05291 | 32239 ft | 421 kts | 237° |
| 2026-04-30 14:31 | 29.07874 | 118.79062 | 32242 ft | 413 kts | 236° |
| 2026-04-30 14:31 | 29.01666 | 118.71267 | 32237 ft | 421 kts | 236° |
| 2026-04-30 14:32 | 28.77746 | 118.41489 | 32201 ft | 426 kts | 235° |
| 2026-04-30 14:33 | 28.61891 | 118.21873 | 32231 ft | 416 kts | 235° |
| 2026-04-30 14:33 | 28.41260 | 117.96461 | 32263 ft | 430 kts | 234° |
| 2026-04-30 14:34 | 28.25067 | 117.77378 | 32227 ft | 434 kts | 233° |
| 2026-04-30 14:34 | 28.08502 | 117.57925 | 32227 ft | 423 kts | 232° |
| 2026-04-30 14:35 | 27.91295 | 117.37792 | 32249 ft | 431 kts | 232° |
| 2026-04-30 14:36 | 27.81620 | 117.26525 | 32235 ft | 441 kts | 231° |
| 2026-04-30 14:36 | 27.67100 | 117.09682 | 32224 ft | 429 kts | 231° |
| 2026-04-30 14:37 | 27.53036 | 116.93416 | 32236 ft | 426 kts | 231° |
| 2026-04-30 14:37 | 27.41141 | 116.79511 | 32274 ft | 443 kts | 231° |
| 2026-04-30 14:38 | 27.24036 | 116.59568 | 32212 ft | 438 kts | 231° |
| 2026-04-30 14:38 | 27.11442 | 116.44503 | 32243 ft | 423 kts | 232° |
| 2026-04-30 14:39 | 26.95321 | 116.24999 | 32264 ft | 432 kts | 231° |
| 2026-04-30 14:39 | 26.82644 | 116.09629 | 32254 ft | 443 kts | 231° |
| 2026-04-30 14:40 | 26.57895 | 115.79636 | 32213 ft | 428 kts | 231° |
| 2026-04-30 14:40 | 26.41685 | 115.60096 | 32247 ft | 433 kts | 231° |
| 2026-04-30 14:41 | 26.27247 | 115.42771 | 32250 ft | 446 kts | 231° |
| 2026-04-30 14:41 | 26.14980 | 115.28116 | 32219 ft | 442 kts | 231° |
| 2026-04-30 14:42 | 26.10824 | 115.23161 | 32217 ft | 436 kts | 231° |
| 2026-04-30 14:42 | 26.06680 | 115.18221 | 32222 ft | 437 kts | 231° |
| 2026-04-30 14:43 | 26.02525 | 115.13273 | 32223 ft | 438 kts | 231° |
| 2026-04-30 14:43 | 25.99064 | 115.09158 | 32220 ft | 439 kts | 231° |
| 2026-04-30 14:44 | 25.94897 | 115.04208 | 32231 ft | 439 kts | 231° |
| 2026-04-30 14:44 | 25.90722 | 114.99254 | 32220 ft | 440 kts | 231° |
| 2026-04-30 14:45 | 25.86539 | 114.94295 | 32226 ft | 440 kts | 231° |
| 2026-04-30 14:45 | 25.82126 | 114.89551 | 32222 ft | 447 kts | 219° |
| 2026-04-30 14:46 | 25.76552 | 114.86374 | 32223 ft | 458 kts | 202° |
| 2026-04-30 14:46 | 25.71326 | 114.84979 | 32221 ft | 462 kts | 197° |
| 2026-04-30 14:47 | 25.64003 | 114.83268 | 32223 ft | 463 kts | 197° |
| 2026-04-30 14:47 | 25.57712 | 114.81757 | 32221 ft | 462 kts | 197° |
| 2026-04-30 14:48 | 25.51433 | 114.80209 | 32218 ft | 462 kts | 197° |
| 2026-04-30 14:48 | 25.45167 | 114.78652 | 32212 ft | 461 kts | 197° |
| 2026-04-30 14:49 | 25.38909 | 114.77099 | 32217 ft | 460 kts | 197° |
| 2026-04-30 14:49 | 25.32671 | 114.75555 | 32220 ft | 460 kts | 197° |
| 2026-04-30 14:50 | 25.23265 | 114.73230 | 32218 ft | 459 kts | 197° |
| 2026-04-30 14:51 | 25.13904 | 114.70920 | 32217 ft | 460 kts | 197° |
| 2026-04-30 14:52 | 25.04542 | 114.68614 | 32220 ft | 460 kts | 197° |
| 2026-04-30 14:52 | 24.95171 | 114.66308 | 32220 ft | 460 kts | 197° |
| 2026-04-30 14:53 | 24.85786 | 114.64004 | 32213 ft | 461 kts | 197° |
| 2026-04-30 14:54 | 24.73249 | 114.60964 | 32221 ft | 462 kts | 197° |
| 2026-04-30 14:55 | 24.67301 | 114.58575 | 32211 ft | 451 kts | 213° |
| 2026-04-30 14:55 | 24.64594 | 114.56847 | 32214 ft | 451 kts | 214° |
| 2026-04-30 14:56 | 24.54693 | 114.50450 | 32218 ft | 451 kts | 214° |
| 2026-04-30 14:57 | 24.46502 | 114.45273 | 32203 ft | 452 kts | 214° |
| 2026-04-30 14:58 | 24.35604 | 114.38422 | 32201 ft | 451 kts | 213° |
| 2026-04-30 14:58 | 24.27403 | 114.33307 | 32203 ft | 452 kts | 213° |
| 2026-04-30 15:00 | 24.13725 | 114.24778 | 32197 ft | 453 kts | 213° |
| 2026-04-30 15:01 | 24.02762 | 114.17953 | 32194 ft | 453 kts | 213° |
| 2026-04-30 15:01 | 23.94530 | 114.12823 | 32187 ft | 455 kts | 213° |
| 2026-04-30 15:02 | 23.89034 | 114.09403 | 32178 ft | 455 kts | 213° |
| 2026-04-30 15:03 | 23.75273 | 114.00854 | 32176 ft | 455 kts | 213° |
| 2026-04-30 15:04 | 23.61503 | 113.92321 | 32168 ft | 456 kts | 212° |
| 2026-04-30 15:06 | 23.47355 | 113.84511 | 32161 ft | 462 kts | 199° |
| 2026-04-30 15:07 | 23.34914 | 113.80877 | 32150 ft | 463 kts | 198° |
| 2026-04-30 15:08 | 23.22487 | 113.77145 | 32150 ft | 463 kts | 198° |
| 2026-04-30 15:09 | 23.06909 | 113.72446 | 32150 ft | 463 kts | 198° |
| 2026-04-30 15:10 | 22.94491 | 113.68710 | 32146 ft | 463 kts | 198° |
| 2026-04-30 15:11 | 22.75935 | 113.63095 | 32144 ft | 460 kts | 199° |
| 2026-04-30 15:13 | 22.60592 | 113.58440 | 32146 ft | 456 kts | 199° |
| 2026-04-30 15:14 | 22.40372 | 113.52267 | 32147 ft | 453 kts | 199° |
| 2026-04-30 15:17 | 22.19782 | 113.40600 | 32152 ft | 429 kts | 248° |
| 2026-04-30 15:19 | 22.10743 | 113.16701 | 32144 ft | 432 kts | 247° |